createdAt,value
2023-01-17T00:00:57.816Z,24.00
2023-01-17T00:03:28.065Z,20.40
2023-01-17T00:06:14.908Z,22.50
2023-01-17T00:09:13.209Z,19.50
2023-01-17T00:11:57.640Z,23.50
2023-01-17T00:14:27.577Z,23.00
2023-01-17T00:17:01.519Z,21.40
2023-01-17T00:19:58.063Z,22.60
2023-01-17T00:23:02.431Z,24.10
2023-01-17T00:26:00.758Z,23.50
2023-01-17T00:28:39.989Z,23.90
2023-01-17T00:31:29.934Z,23.30
2023-01-17T00:34:07.592Z,23.70
2023-01-17T00:36:40.818Z,25.50
2023-01-17T00:39:13.528Z,28.10
2023-01-17T00:41:48.473Z,26.10
2023-01-17T00:44:40.890Z,25.60
2023-01-17T00:47:29.293Z,26.60
2023-01-17T00:50:46.679Z,25.70
2023-01-17T00:53:36.385Z,28.60
2023-01-17T00:56:23.893Z,25.40
2023-01-17T00:59:15.246Z,30.60
2023-01-17T01:02:11.153Z,29.90
2023-01-17T01:05:04.510Z,26.90
2023-01-17T01:08:03.063Z,26.50
2023-01-17T01:10:59.344Z,27.90
2023-01-17T01:13:51.677Z,27.60
2023-01-17T01:16:40.954Z,28.60
2023-01-17T01:19:40.377Z,24.30
2023-01-17T01:22:30.128Z,28.30
2023-01-17T01:25:22.707Z,26.00
2023-01-17T01:28:22.188Z,26.80
2023-01-17T01:31:15.480Z,26.70
2023-01-17T01:33:44.690Z,27.90
2023-01-17T01:36:15.084Z,27.10
2023-01-17T01:38:55.878Z,28.20
2023-01-17T01:41:38.157Z,28.40
2023-01-17T01:44:50.411Z,29.60
2023-01-17T01:47:41.014Z,25.00
2023-01-17T01:50:26.444Z,27.00
2023-01-17T01:53:02.867Z,27.90
2023-01-17T01:55:39.085Z,25.20
2023-01-17T01:58:28.225Z,26.70
2023-01-17T02:01:10.671Z,28.30
2023-01-17T02:03:55.370Z,24.50
2023-01-17T02:06:40.238Z,28.60
2023-01-17T02:09:15.799Z,26.30
2023-01-17T02:12:07.419Z,28.50
2023-01-17T02:15:00.031Z,25.30
2023-01-17T02:18:22.095Z,25.20
2023-01-17T02:21:13.429Z,26.10
2023-01-17T02:24:10.901Z,28.80
2023-01-17T02:27:06.093Z,26.90
2023-01-17T02:30:16.389Z,25.60
2023-01-17T02:33:29.251Z,24.50
2023-01-17T02:36:23.666Z,25.80
2023-01-17T02:39:02.928Z,23.30
2023-01-17T02:41:42.459Z,23.70
2023-01-17T02:44:27.650Z,25.20
2023-01-17T02:46:58.453Z,23.10
2023-01-17T02:49:43.348Z,21.80
2023-01-17T02:52:54.177Z,23.80
2023-01-17T02:55:49.114Z,22.90
2023-01-17T02:58:56.218Z,21.50
2023-01-17T03:02:01.644Z,22.90
2023-01-17T03:04:50.044Z,22.60
2023-01-17T03:07:28.649Z,20.20
2023-01-17T03:10:06.499Z,21.20
2023-01-17T03:12:40.074Z,20.40
2023-01-17T03:15:47.445Z,21.50
2023-01-17T03:18:31.302Z,22.20
2023-01-17T03:21:23.972Z,20.50
2023-01-17T03:24:01.531Z,17.90
2023-01-17T03:26:32.942Z,20.20
2023-01-17T03:29:06.814Z,18.50
2023-01-17T03:31:36.508Z,19.70
2023-01-17T03:34:31.191Z,19.10
2023-01-17T03:37:04.656Z,17.40
2023-01-17T03:39:52.939Z,20.10
2023-01-17T03:42:42.999Z,17.60
2023-01-17T03:45:17.582Z,18.30
2023-01-17T03:47:57.482Z,18.30
2023-01-17T03:50:52.390Z,18.50
2023-01-17T03:53:24.136Z,18.80
2023-01-17T03:55:59.930Z,16.60
2023-01-17T03:58:45.162Z,18.90
2023-01-17T04:01:19.437Z,17.60
2023-01-17T04:04:07.486Z,15.10
2023-01-17T04:06:45.288Z,15.10
2023-01-17T04:09:22.928Z,15.90
2023-01-17T04:12:11.846Z,15.40
2023-01-17T04:14:50.433Z,15.70
2023-01-17T04:17:20.880Z,14.40
2023-01-17T04:19:53.011Z,13.30
2023-01-17T04:22:21.873Z,12.50
2023-01-17T04:24:55.799Z,12.70
2023-01-17T04:27:24.404Z,11.10
2023-01-17T04:29:53.354Z,10.30
2023-01-17T04:32:31.076Z,13.20
2023-01-17T04:35:17.505Z,12.40
2023-01-17T04:37:50.080Z,10.30
2023-01-17T04:40:19.613Z,10.50
2023-01-17T04:43:07.353Z,10.20
2023-01-17T04:45:36.077Z,8.50
2023-01-17T04:48:16.421Z,10.20
2023-01-17T04:50:46.311Z,9.90
2023-01-17T04:53:31.137Z,10.00
2023-01-17T04:56:11.089Z,8.70
2023-01-17T04:58:41.007Z,8.20
2023-01-17T05:01:10.133Z,7.80
2023-01-17T05:03:40.655Z,7.20
2023-01-17T05:06:11.911Z,9.10
2023-01-17T05:08:50.090Z,6.70
2023-01-17T05:11:29.110Z,5.80
2023-01-17T05:14:10.962Z,7.00
2023-01-17T05:16:40.014Z,5.20
2023-01-17T05:19:17.599Z,5.60
2023-01-17T05:21:54.752Z,7.20
2023-01-17T05:24:35.062Z,5.60
2023-01-17T05:27:08.813Z,5.20
2023-01-17T05:29:49.985Z,6.10
2023-01-17T05:32:52.627Z,3.70
2023-01-17T05:35:25.875Z,5.00
2023-01-17T05:38:02.463Z,4.50
2023-01-17T05:40:51.696Z,4.50
2023-01-17T05:43:33.397Z,5.20
2023-01-17T05:46:12.777Z,4.00
2023-01-17T05:48:53.917Z,5.00
2023-01-17T05:51:37.882Z,5.90
2023-01-17T05:54:10.402Z,5.20
2023-01-17T05:56:41.411Z,4.20
2023-01-17T05:59:14.265Z,8.50
2023-01-17T06:01:46.336Z,4.90
2023-01-17T06:04:24.672Z,4.90
2023-01-17T06:06:53.489Z,4.90
2023-01-17T06:09:28.651Z,3.90
2023-01-17T06:12:22.004Z,4.20
2023-01-17T06:15:13.973Z,4.60
2023-01-17T06:17:43.067Z,4.40
2023-01-17T06:20:14.507Z,4.50
2023-01-17T06:23:04.497Z,5.20
2023-01-17T06:26:04.756Z,5.10
2023-01-17T06:29:11.097Z,4.60
2023-01-17T06:32:17.759Z,4.20
2023-01-17T06:35:12.322Z,3.80
2023-01-17T06:37:49.180Z,26.70
2023-01-17T06:40:26.373Z,28.20
2023-01-17T06:42:59.955Z,29.10
2023-01-17T06:45:31.824Z,34.80
2023-01-17T06:48:12.267Z,22.90
2023-01-17T06:51:07.771Z,8.90
2023-01-17T06:53:42.121Z,7.10
2023-01-17T06:56:11.227Z,8.30
2023-01-17T06:58:39.828Z,6.00
2023-01-17T07:01:26.621Z,4.80
2023-01-17T07:03:55.166Z,7.10
2023-01-17T07:06:25.180Z,15.50
2023-01-17T07:08:53.590Z,12.00
2023-01-17T07:11:22.389Z,16.20
2023-01-17T07:13:50.797Z,123.40
2023-01-17T07:16:22.301Z,29.80
2023-01-17T07:18:58.268Z,11.80
2023-01-17T07:21:28.923Z,8.30
2023-01-17T07:24:01.310Z,5.80
2023-01-17T07:26:29.868Z,5.60
2023-01-17T07:28:58.713Z,5.30
2023-01-17T07:31:27.084Z,5.20
2023-01-17T07:33:58.826Z,7.20
2023-01-17T07:36:27.314Z,9.00
2023-01-17T07:39:00.691Z,9.70
2023-01-17T07:41:32.997Z,10.70
2023-01-17T07:44:02.049Z,21.50
2023-01-17T07:46:30.524Z,15.00
2023-01-17T07:48:58.838Z,10.90
2023-01-17T07:51:34.410Z,13.70
2023-01-17T07:54:06.192Z,8.60
2023-01-17T07:59:04.175Z,6.40
2023-01-17T08:01:45.504Z,5.70
2023-01-17T08:06:51.893Z,6.70
2023-01-17T08:09:29.310Z,5.70
2023-01-17T08:11:57.821Z,7.00
2023-01-17T08:14:27.229Z,5.60
2023-01-17T08:17:03.485Z,6.70
2023-01-17T08:19:32.323Z,6.20
2023-01-17T08:22:03.618Z,5.80
2023-01-17T08:24:37.663Z,15.50
2023-01-17T08:27:09.188Z,8.10
2023-01-17T08:29:46.946Z,7.00
2023-01-17T08:32:31.365Z,8.60
2023-01-17T08:35:09.552Z,12.10
2023-01-17T08:37:47.851Z,15.30
2023-01-17T08:40:36.763Z,15.70
2023-01-17T08:43:05.199Z,7.20
2023-01-17T08:45:36.637Z,5.20
2023-01-17T08:48:05.043Z,3.70
2023-01-17T08:50:53.494Z,5.70
2023-01-17T08:53:31.243Z,6.30
2023-01-17T08:56:06.350Z,4.40
2023-01-17T08:58:37.604Z,6.40
2023-01-17T09:01:08.949Z,8.50
2023-01-17T09:03:48.930Z,5.90
2023-01-17T09:06:48.615Z,6.10
2023-01-17T09:09:20.639Z,4.30
2023-01-17T09:12:06.895Z,4.90
2023-01-17T09:14:35.923Z,2.30
2023-01-17T09:17:07.193Z,4.80
2023-01-17T09:19:59.660Z,6.50
2023-01-17T09:22:39.474Z,4.40
2023-01-17T09:25:08.301Z,4.90
2023-01-17T09:27:36.759Z,3.60
2023-01-17T09:30:08.714Z,5.70
2023-01-17T09:32:37.390Z,6.60
2023-01-17T09:35:18.485Z,6.40
2023-01-17T09:37:51.921Z,6.80
2023-01-17T09:40:25.205Z,6.50
2023-01-17T09:43:02.648Z,4.10
2023-01-17T09:45:37.314Z,6.50
2023-01-17T09:48:23.479Z,4.20
2023-01-17T09:51:00.468Z,5.70
2023-01-17T09:53:37.739Z,8.60
2023-01-17T09:56:20.049Z,7.50
2023-01-17T09:59:39.730Z,4.20
2023-01-17T10:03:05.086Z,2.90
2023-01-17T10:06:00.287Z,5.30
2023-01-17T10:08:54.094Z,4.70
2023-01-17T10:11:41.595Z,6.10
2023-01-17T10:14:42.855Z,6.20
2023-01-17T10:17:27.738Z,8.00
2023-01-17T10:20:34.750Z,7.40
2023-01-17T10:23:36.518Z,5.40
2023-01-17T10:28:54.468Z,8.40
2023-01-17T10:31:36.719Z,5.80
2023-01-17T10:34:23.414Z,5.90
2023-01-17T10:37:15.372Z,7.10
2023-01-17T10:39:46.732Z,6.40
2023-01-17T10:45:25.776Z,7.30
2023-01-17T10:48:12.635Z,7.60
2023-01-17T10:51:16.076Z,7.60
2023-01-17T10:53:49.481Z,4.10
2023-01-17T10:56:28.989Z,5.50
2023-01-17T10:59:57.163Z,4.40
2023-01-17T11:02:54.812Z,5.60
2023-01-17T11:05:49.759Z,4.40
2023-01-17T11:08:21.223Z,4.30
2023-01-17T11:13:58.593Z,4.40
2023-01-17T11:16:31.597Z,7.40
2023-01-17T11:19:45.725Z,6.40
2023-01-17T11:22:23.864Z,6.30
2023-01-17T11:24:55.706Z,5.20
2023-01-17T11:28:31.802Z,4.90
2023-01-17T11:31:39.892Z,7.30
2023-01-17T11:35:09.403Z,6.10
2023-01-17T11:37:49.010Z,5.90
2023-01-17T11:40:53.713Z,6.50
2023-01-17T11:43:27.647Z,4.70
2023-01-17T11:46:39.500Z,3.40
2023-01-17T11:49:39.524Z,10.70
2023-01-17T11:52:56.967Z,22.80
2023-01-17T11:55:28.206Z,5.50
2023-01-17T11:58:01.932Z,5.00
2023-01-17T12:00:58.866Z,7.50
2023-01-17T12:03:58.767Z,3.70
2023-01-17T12:06:56.415Z,4.50
2023-01-17T12:09:46.016Z,5.00
2023-01-17T12:13:03.180Z,2.90
2023-01-17T12:16:32.013Z,4.30
2023-01-17T12:19:32.483Z,4.30
2023-01-17T12:22:21.349Z,9.30
2023-01-17T12:25:22.837Z,4.50
2023-01-17T12:28:16.169Z,10.00
2023-01-17T12:32:00.033Z,5.80
2023-01-17T12:34:41.551Z,8.50
2023-01-17T12:37:39.257Z,10.50
2023-01-17T12:40:20.316Z,11.50
2023-01-17T12:43:58.501Z,5.80
2023-01-17T12:47:00.330Z,4.40
2023-01-17T12:50:06.990Z,3.10
2023-01-17T12:53:06.736Z,6.40
2023-01-17T12:56:16.222Z,7.30
2023-01-17T12:59:59.098Z,4.30
2023-01-17T13:03:24.875Z,4.90
2023-01-17T13:06:02.670Z,5.90
2023-01-17T13:09:12.610Z,4.10
2023-01-17T13:12:40.963Z,7.90
2023-01-17T13:15:38.226Z,7.20
2023-01-17T13:18:14.391Z,6.90
2023-01-17T13:21:27.515Z,8.40
2023-01-17T13:24:18.783Z,5.70
2023-01-17T13:26:56.461Z,6.10
2023-01-17T13:30:00.135Z,6.20
2023-01-17T13:33:20.611Z,6.70
2023-01-17T13:36:16.931Z,5.80
2023-01-17T13:39:53.371Z,5.90
2023-01-17T13:43:05.878Z,5.30
2023-01-17T13:45:36.921Z,7.40
2023-01-17T13:48:37.987Z,3.90
2023-01-17T13:51:35.040Z,6.10
2023-01-17T13:54:33.727Z,4.50
2023-01-17T13:57:47.561Z,5.60
2023-01-17T14:00:26.103Z,6.80
2023-01-17T14:02:55.620Z,9.40
2023-01-17T14:05:39.491Z,8.30
2023-01-17T14:08:18.369Z,11.00
2023-01-17T14:11:14.325Z,12.60
2023-01-17T14:13:43.439Z,11.90
2023-01-17T14:16:29.376Z,6.90
2023-01-17T14:18:58.336Z,7.80
2023-01-17T14:21:35.794Z,11.30
2023-01-17T14:24:10.645Z,10.30
2023-01-17T14:26:57.966Z,13.00
2023-01-17T14:29:48.622Z,9.70
2023-01-17T14:32:20.955Z,11.70
2023-01-17T14:34:51.687Z,14.00
2023-01-17T14:37:41.062Z,8.20
2023-01-17T14:40:29.987Z,8.70
2023-01-17T14:43:12.067Z,10.90
2023-01-17T14:46:05.333Z,9.50
2023-01-17T14:48:42.693Z,10.60
2023-01-17T14:51:20.556Z,10.70
2023-01-17T14:54:02.453Z,11.00
2023-01-17T14:56:42.307Z,7.90
2023-01-17T14:59:21.712Z,10.60
2023-01-17T15:02:18.913Z,10.80
2023-01-17T15:04:58.526Z,11.00
2023-01-17T15:07:40.193Z,12.10
2023-01-17T15:10:29.763Z,10.20
2023-01-17T15:13:06.003Z,8.50
2023-01-17T15:15:42.077Z,8.80
2023-01-17T15:18:31.549Z,8.30
2023-01-17T15:21:23.019Z,9.10
2023-01-17T15:23:58.110Z,6.40
2023-01-17T15:26:36.731Z,7.70
2023-01-17T15:29:11.548Z,10.90
2023-01-17T15:31:45.903Z,8.60
2023-01-17T15:35:03.109Z,11.10
2023-01-17T15:37:41.970Z,13.10
2023-01-17T15:40:26.845Z,15.10
2023-01-17T15:43:02.456Z,15.80
2023-01-17T15:45:33.649Z,16.80
2023-01-17T15:48:40.712Z,17.10
2023-01-17T15:51:12.314Z,18.50
2023-01-17T15:53:43.303Z,19.70
2023-01-17T15:56:33.028Z,19.40
2023-01-17T15:59:41.291Z,15.80
2023-01-17T16:02:33.557Z,16.30
2023-01-17T16:05:27.881Z,15.70
2023-01-17T16:08:17.556Z,13.50
2023-01-17T16:10:46.070Z,13.90
2023-01-17T16:13:14.723Z,16.20
2023-01-17T16:15:43.455Z,17.60
2023-01-17T16:18:26.925Z,55.60
2023-01-17T16:21:19.491Z,45.50
2023-01-17T16:23:48.109Z,19.00
2023-01-17T16:26:16.845Z,15.90
2023-01-17T16:28:46.020Z,14.40
2023-01-17T16:31:14.541Z,14.10
2023-01-17T16:33:43.020Z,16.60
2023-01-17T16:36:16.658Z,14.50
2023-01-17T16:38:51.582Z,15.60
2023-01-17T16:41:20.546Z,16.70
2023-01-17T16:44:11.695Z,20.60
2023-01-17T16:47:05.110Z,20.50
2023-01-17T16:49:39.879Z,21.40
2023-01-17T16:52:08.477Z,19.30
2023-01-17T16:54:41.569Z,16.70
2023-01-17T16:57:10.057Z,15.60
2023-01-17T16:59:50.126Z,14.60
2023-01-17T17:02:23.246Z,13.90
2023-01-17T17:04:55.160Z,12.50
2023-01-17T17:07:24.250Z,12.50
2023-01-17T17:09:52.712Z,13.90
2023-01-17T17:12:30.196Z,13.10
2023-01-17T17:15:04.688Z,12.10
2023-01-17T17:17:41.476Z,12.00
2023-01-17T17:20:16.257Z,13.00
2023-01-17T17:23:02.669Z,19.80
2023-01-17T17:25:36.649Z,18.60
2023-01-17T17:28:17.123Z,18.50
2023-01-17T17:30:46.122Z,20.60
2023-01-17T17:33:17.832Z,17.70
2023-01-17T17:35:49.393Z,19.60
2023-01-17T17:38:20.438Z,19.90
2023-01-17T17:40:49.058Z,21.20
2023-01-17T17:43:17.488Z,19.00
2023-01-17T17:48:17.720Z,21.80
2023-01-17T17:51:06.449Z,18.10
2023-01-17T17:53:35.284Z,19.30
2023-01-17T17:56:05.841Z,18.30
2023-01-17T17:58:35.767Z,29.90
2023-01-17T18:01:07.201Z,47.90
2023-01-17T18:03:35.754Z,28.80
2023-01-17T18:06:07.029Z,28.60
2023-01-17T18:08:37.128Z,30.40
2023-01-17T18:11:11.248Z,34.30
2023-01-17T18:13:40.512Z,33.70
2023-01-17T18:16:16.200Z,28.70
2023-01-17T18:18:48.246Z,28.40
2023-01-17T18:21:28.291Z,26.60
2023-01-17T18:24:09.969Z,22.70
2023-01-17T18:26:47.875Z,20.20
2023-01-17T18:29:18.210Z,21.00
2023-01-17T18:31:47.945Z,21.30
2023-01-17T18:34:21.299Z,20.80
2023-01-17T18:36:51.220Z,22.00
2023-01-17T18:39:29.649Z,38.80
2023-01-17T18:42:02.577Z,22.20
2023-01-17T18:44:34.087Z,35.40
2023-01-17T18:47:07.100Z,24.50
2023-01-17T18:49:38.206Z,18.10
2023-01-17T18:52:08.196Z,18.10
2023-01-17T18:54:40.238Z,16.70
2023-01-17T18:57:10.872Z,17.90
2023-01-17T18:59:51.734Z,20.60
2023-01-17T19:02:20.282Z,21.40
2023-01-17T19:04:48.905Z,18.80
2023-01-17T19:07:17.381Z,21.30
2023-01-17T19:09:54.785Z,19.90
2023-01-17T19:12:24.587Z,18.20
2023-01-17T19:15:06.696Z,44.60
2023-01-17T19:17:37.752Z,31.70
2023-01-17T19:20:07.278Z,19.40
2023-01-17T19:22:43.495Z,20.10
2023-01-17T19:25:15.458Z,18.40
2023-01-17T19:27:44.152Z,16.00
2023-01-17T19:30:13.055Z,16.40
2023-01-17T19:32:47.621Z,18.90
2023-01-17T19:35:19.264Z,15.40
2023-01-17T19:37:51.359Z,18.20
2023-01-17T19:42:48.252Z,16.30
2023-01-17T19:45:26.126Z,18.00
2023-01-17T19:47:55.077Z,17.10
2023-01-17T19:50:24.047Z,16.60
2023-01-17T19:53:01.585Z,16.30
2023-01-17T19:55:58.996Z,15.90
2023-01-17T19:58:36.103Z,17.60
2023-01-17T20:01:30.416Z,100.20
2023-01-17T20:04:02.545Z,32.70
2023-01-17T20:06:35.947Z,20.20
2023-01-17T20:09:06.214Z,20.10
2023-01-17T20:11:35.713Z,20.10
2023-01-17T20:14:07.822Z,20.00
2023-01-17T20:16:38.955Z,17.40
2023-01-17T20:19:07.405Z,19.90
2023-01-17T20:21:38.515Z,20.20
2023-01-17T20:24:09.044Z,20.90
2023-01-17T20:26:37.815Z,22.60
2023-01-17T20:29:14.155Z,26.10
2023-01-17T20:31:43.953Z,23.40
2023-01-17T20:34:14.082Z,20.80
2023-01-17T20:36:51.334Z,23.50
2023-01-17T20:39:22.901Z,23.60
2023-01-17T20:42:01.671Z,23.10
2023-01-17T20:44:32.287Z,23.60
2023-01-17T20:47:00.976Z,30.20
2023-01-17T20:49:29.604Z,27.30
2023-01-17T20:52:01.492Z,27.90
2023-01-17T20:54:29.990Z,30.70
2023-01-17T20:56:59.738Z,33.30
2023-01-17T20:59:28.137Z,30.50
2023-01-17T21:01:56.763Z,32.90
2023-01-17T21:04:26.022Z,28.70
2023-01-17T21:06:54.866Z,27.10
2023-01-17T21:09:23.714Z,29.70
2023-01-17T21:11:54.475Z,28.00
2023-01-17T21:14:23.043Z,32.40
2023-01-17T21:16:51.316Z,33.10
2023-01-17T21:19:20.718Z,28.60
2023-01-17T21:21:50.284Z,25.40
2023-01-17T21:24:21.187Z,25.70
2023-01-17T21:26:52.959Z,24.90
2023-01-17T21:29:28.966Z,26.50
2023-01-17T21:31:57.582Z,26.60
2023-01-17T21:34:28.148Z,26.70
2023-01-17T21:36:56.658Z,24.70
2023-01-17T21:39:25.116Z,27.50
2023-01-17T21:41:53.543Z,30.00
2023-01-17T21:44:23.603Z,27.80
2023-01-17T21:46:55.101Z,25.00
2023-01-17T21:49:27.326Z,24.60
2023-01-17T21:51:55.532Z,26.50
2023-01-17T21:54:45.212Z,27.90
2023-01-17T21:57:35.186Z,24.70
2023-01-17T22:00:14.610Z,26.10
2023-01-17T22:02:48.237Z,24.60
2023-01-17T22:05:20.197Z,25.10
2023-01-17T22:08:07.114Z,23.60
2023-01-17T22:10:44.699Z,24.80
2023-01-17T22:13:18.485Z,27.80
2023-01-17T22:15:58.625Z,29.20
2023-01-17T22:18:27.869Z,28.20
2023-01-17T22:20:56.942Z,26.30
2023-01-17T22:23:25.204Z,28.80
2023-01-17T22:25:53.413Z,27.20
2023-01-17T22:28:21.511Z,24.70
2023-01-17T22:30:56.911Z,22.70
2023-01-17T22:33:25.549Z,23.50
2023-01-17T22:35:58.607Z,25.30
2023-01-17T22:38:26.798Z,26.10
2023-01-17T22:41:01.566Z,24.00
2023-01-17T22:43:29.647Z,21.30
2023-01-17T22:46:00.779Z,19.60
2023-01-17T22:48:31.137Z,21.20
2023-01-17T22:51:02.155Z,21.10
2023-01-17T22:53:31.276Z,18.00
2023-01-17T22:56:07.902Z,18.80
2023-01-17T22:58:36.521Z,19.30
2023-01-17T23:01:11.107Z,17.60
2023-01-17T23:03:44.966Z,17.60
2023-01-17T23:06:16.508Z,16.10
2023-01-17T23:08:47.390Z,14.90
2023-01-17T23:11:40.976Z,15.70
2023-01-17T23:14:18.378Z,14.60
2023-01-17T23:17:11.380Z,14.20
2023-01-17T23:19:41.448Z,12.20
2023-01-17T23:22:16.022Z,13.40
2023-01-17T23:24:58.941Z,12.70
2023-01-17T23:27:50.415Z,11.50
2023-01-17T23:30:30.057Z,11.90
2023-01-17T23:33:01.159Z,11.10
2023-01-17T23:35:33.383Z,11.80
2023-01-17T23:38:20.397Z,10.70
2023-01-17T23:41:27.890Z,10.50
2023-01-17T23:44:08.810Z,9.50
2023-01-17T23:46:39.801Z,12.20
2023-01-17T23:49:08.516Z,12.80
2023-01-17T23:51:45.072Z,14.70
2023-01-17T23:54:22.853Z,16.70
2023-01-17T23:57:02.822Z,16.60
2023-01-17T23:59:31.339Z,17.70
